sensor_id;sensor_type;location;lat;lon;timestamp;P1;durP1;ratioP1;P2;durP2;ratioP2
38901;SDS011;24661;53.566;9.910;2023-07-29T00:01:30;5.73;;;3.80;;
38901;SDS011;24661;53.566;9.910;2023-07-29T00:03:56;4.50;;;4.10;;
38901;SDS011;24661;53.566;9.910;2023-07-29T00:06:21;5.53;;;4.00;;
38901;SDS011;24661;53.566;9.910;2023-07-29T00:08:47;4.57;;;3.80;;
38901;SDS011;24661;53.566;9.910;2023-07-29T00:11:13;4.43;;;3.70;;
38901;SDS011;24661;53.566;9.910;2023-07-29T00:13:38;5.17;;;4.30;;
38901;SDS011;24661;53.566;9.910;2023-07-29T00:16:04;7.20;;;4.30;;
38901;SDS011;24661;53.566;9.910;2023-07-29T00:18:29;8.60;;;4.10;;
38901;SDS011;24661;53.566;9.910;2023-07-29T00:20:56;7.13;;;4.87;;
38901;SDS011;24661;53.566;9.910;2023-07-29T00:23:22;4.83;;;3.77;;
38901;SDS011;24661;53.566;9.910;2023-07-29T00:25:48;7.57;;;4.10;;
38901;SDS011;24661;53.566;9.910;2023-07-29T00:28:13;7.00;;;4.13;;
38901;SDS011;24661;53.566;9.910;2023-07-29T00:30:39;5.83;;;3.97;;
38901;SDS011;24661;53.566;9.910;2023-07-29T00:33:04;5.13;;;4.13;;
38901;SDS011;24661;53.566;9.910;2023-07-29T00:35:30;6.27;;;4.60;;
38901;SDS011;24661;53.566;9.910;2023-07-29T00:37:56;10.47;;;4.80;;
38901;SDS011;24661;53.566;9.910;2023-07-29T00:40:21;6.13;;;4.60;;
38901;SDS011;24661;53.566;9.910;2023-07-29T00:42:50;4.03;;;3.63;;
38901;SDS011;24661;53.566;9.910;2023-07-29T00:45:15;6.63;;;4.40;;
38901;SDS011;24661;53.566;9.910;2023-07-29T00:47:42;7.37;;;4.87;;
38901;SDS011;24661;53.566;9.910;2023-07-29T00:50:09;5.93;;;5.33;;
38901;SDS011;24661;53.566;9.910;2023-07-29T00:52:36;6.17;;;4.73;;
38901;SDS011;24661;53.566;9.910;2023-07-29T00:55:02;6.10;;;4.53;;
38901;SDS011;24661;53.566;9.910;2023-07-29T00:57:29;4.87;;;4.20;;
38901;SDS011;24661;53.566;9.910;2023-07-29T00:59:55;8.37;;;4.23;;
38901;SDS011;24661;53.566;9.910;2023-07-29T01:02:21;6.10;;;4.50;;
38901;SDS011;24661;53.566;9.910;2023-07-29T01:04:51;6.33;;;5.00;;
38901;SDS011;24661;53.566;9.910;2023-07-29T01:07:23;9.30;;;4.37;;
38901;SDS011;24661;53.566;9.910;2023-07-29T01:10:11;5.50;;;4.53;;
38901;SDS011;24661;53.566;9.910;2023-07-29T01:12:54;6.60;;;4.77;;
38901;SDS011;24661;53.566;9.910;2023-07-29T01:18:26;5.53;;;4.97;;
38901;SDS011;24661;53.566;9.910;2023-07-29T01:20:58;7.73;;;5.07;;
38901;SDS011;24661;53.566;9.910;2023-07-29T01:23:31;7.00;;;4.90;;
38901;SDS011;24661;53.566;9.910;2023-07-29T01:25:58;6.17;;;4.73;;
38901;SDS011;24661;53.566;9.910;2023-07-29T01:28:24;6.17;;;5.57;;
38901;SDS011;24661;53.566;9.910;2023-07-29T01:30:51;6.03;;;5.13;;
38901;SDS011;24661;53.566;9.910;2023-07-29T01:33:26;9.87;;;5.17;;
38901;SDS011;24661;53.566;9.910;2023-07-29T01:36:02;6.87;;;5.33;;
38901;SDS011;24661;53.566;9.910;2023-07-29T01:38:35;6.67;;;5.07;;
38901;SDS011;24661;53.566;9.910;2023-07-29T01:41:03;7.07;;;4.97;;
38901;SDS011;24661;53.566;9.910;2023-07-29T01:43:31;6.57;;;5.57;;
38901;SDS011;24661;53.566;9.910;2023-07-29T01:45:57;13.60;;;7.17;;
38901;SDS011;24661;53.566;9.910;2023-07-29T01:48:23;16.00;;;8.80;;
38901;SDS011;24661;53.566;9.910;2023-07-29T01:50:48;10.80;;;7.53;;
38901;SDS011;24661;53.566;9.910;2023-07-29T01:53:14;15.63;;;9.20;;
38901;SDS011;24661;53.566;9.910;2023-07-29T01:55:40;14.30;;;8.67;;
38901;SDS011;24661;53.566;9.910;2023-07-29T01:58:07;12.00;;;7.27;;
38901;SDS011;24661;53.566;9.910;2023-07-29T02:00:33;10.23;;;7.70;;
38901;SDS011;24661;53.566;9.910;2023-07-29T02:02:58;10.47;;;7.47;;
38901;SDS011;24661;53.566;9.910;2023-07-29T02:05:24;15.20;;;9.50;;
38901;SDS011;24661;53.566;9.910;2023-07-29T02:07:49;18.93;;;10.10;;
38901;SDS011;24661;53.566;9.910;2023-07-29T02:10:15;24.03;;;10.97;;
38901;SDS011;24661;53.566;9.910;2023-07-29T02:12:41;15.10;;;9.90;;
38901;SDS011;24661;53.566;9.910;2023-07-29T02:15:06;15.63;;;10.23;;
38901;SDS011;24661;53.566;9.910;2023-07-29T02:17:32;17.43;;;12.00;;
38901;SDS011;24661;53.566;9.910;2023-07-29T02:19:59;17.13;;;11.60;;
38901;SDS011;24661;53.566;9.910;2023-07-29T02:22:24;15.30;;;10.27;;
38901;SDS011;24661;53.566;9.910;2023-07-29T02:24:50;12.40;;;8.93;;
38901;SDS011;24661;53.566;9.910;2023-07-29T02:27:15;12.33;;;9.00;;
38901;SDS011;24661;53.566;9.910;2023-07-29T02:29:41;22.57;;;9.93;;
38901;SDS011;24661;53.566;9.910;2023-07-29T02:32:07;18.43;;;10.70;;
38901;SDS011;24661;53.566;9.910;2023-07-29T02:34:32;18.97;;;11.73;;
38901;SDS011;24661;53.566;9.910;2023-07-29T02:36:58;20.43;;;12.57;;
38901;SDS011;24661;53.566;9.910;2023-07-29T02:39:23;19.17;;;12.33;;
38901;SDS011;24661;53.566;9.910;2023-07-29T02:41:49;11.73;;;9.90;;
38901;SDS011;24661;53.566;9.910;2023-07-29T02:44:15;15.67;;;10.70;;
38901;SDS011;24661;53.566;9.910;2023-07-29T02:46:41;18.90;;;11.37;;
38901;SDS011;24661;53.566;9.910;2023-07-29T02:49:06;10.97;;;9.80;;
38901;SDS011;24661;53.566;9.910;2023-07-29T02:51:32;22.83;;;14.97;;
38901;SDS011;24661;53.566;9.910;2023-07-29T02:53:57;14.87;;;10.73;;
38901;SDS011;24661;53.566;9.910;2023-07-29T02:56:23;16.80;;;11.63;;
38901;SDS011;24661;53.566;9.910;2023-07-29T02:58:49;20.33;;;13.00;;
38901;SDS011;24661;53.566;9.910;2023-07-29T03:01:16;13.03;;;11.00;;
38901;SDS011;24661;53.566;9.910;2023-07-29T03:03:42;12.50;;;11.20;;
38901;SDS011;24661;53.566;9.910;2023-07-29T03:06:10;15.43;;;11.60;;
38901;SDS011;24661;53.566;9.910;2023-07-29T03:08:36;12.20;;;9.43;;
38901;SDS011;24661;53.566;9.910;2023-07-29T03:11:06;12.67;;;10.77;;
38901;SDS011;24661;53.566;9.910;2023-07-29T03:13:34;11.03;;;9.80;;
38901;SDS011;24661;53.566;9.910;2023-07-29T03:18:34;13.23;;;10.43;;
38901;SDS011;24661;53.566;9.910;2023-07-29T03:20:59;12.47;;;10.03;;
38901;SDS011;24661;53.566;9.910;2023-07-29T03:23:25;12.37;;;10.47;;
38901;SDS011;24661;53.566;9.910;2023-07-29T03:25:51;13.20;;;10.77;;
38901;SDS011;24661;53.566;9.910;2023-07-29T03:28:21;14.33;;;10.33;;
38901;SDS011;24661;53.566;9.910;2023-07-29T03:30:48;12.93;;;11.20;;
38901;SDS011;24661;53.566;9.910;2023-07-29T03:33:13;11.87;;;10.43;;
38901;SDS011;24661;53.566;9.910;2023-07-29T03:35:39;22.20;;;12.80;;
38901;SDS011;24661;53.566;9.910;2023-07-29T03:38:04;14.60;;;10.83;;
38901;SDS011;24661;53.566;9.910;2023-07-29T03:40:30;16.43;;;11.90;;
38901;SDS011;24661;53.566;9.910;2023-07-29T03:42:56;21.03;;;14.03;;
38901;SDS011;24661;53.566;9.910;2023-07-29T03:45:21;20.10;;;14.13;;
38901;SDS011;24661;53.566;9.910;2023-07-29T03:47:47;16.20;;;12.27;;
38901;SDS011;24661;53.566;9.910;2023-07-29T03:50:12;14.37;;;11.70;;
38901;SDS011;24661;53.566;9.910;2023-07-29T03:52:38;16.30;;;13.23;;
38901;SDS011;24661;53.566;9.910;2023-07-29T03:55:03;23.47;;;14.23;;
38901;SDS011;24661;53.566;9.910;2023-07-29T03:57:29;25.37;;;16.20;;
38901;SDS011;24661;53.566;9.910;2023-07-29T03:59:55;28.70;;;16.63;;
38901;SDS011;24661;53.566;9.910;2023-07-29T04:02:20;24.30;;;15.60;;
38901;SDS011;24661;53.566;9.910;2023-07-29T04:04:46;23.53;;;15.47;;
38901;SDS011;24661;53.566;9.910;2023-07-29T04:07:13;27.33;;;18.20;;
38901;SDS011;24661;53.566;9.910;2023-07-29T04:09:39;31.80;;;17.83;;
38901;SDS011;24661;53.566;9.910;2023-07-29T04:12:05;43.60;;;21.47;;
38901;SDS011;24661;53.566;9.910;2023-07-29T04:14:31;26.60;;;17.13;;
38901;SDS011;24661;53.566;9.910;2023-07-29T04:16:56;30.20;;;19.07;;
38901;SDS011;24661;53.566;9.910;2023-07-29T04:19:22;29.10;;;19.10;;
38901;SDS011;24661;53.566;9.910;2023-07-29T04:21:47;33.37;;;19.43;;
38901;SDS011;24661;53.566;9.910;2023-07-29T04:24:13;40.90;;;21.93;;
38901;SDS011;24661;53.566;9.910;2023-07-29T04:26:38;41.57;;;23.47;;
38901;SDS011;24661;53.566;9.910;2023-07-29T04:29:04;42.57;;;23.57;;
38901;SDS011;24661;53.566;9.910;2023-07-29T04:31:30;47.43;;;26.17;;
38901;SDS011;24661;53.566;9.910;2023-07-29T04:33:55;35.90;;;22.07;;
38901;SDS011;24661;53.566;9.910;2023-07-29T04:36:21;45.07;;;23.73;;
38901;SDS011;24661;53.566;9.910;2023-07-29T04:38:46;45.13;;;24.70;;
38901;SDS011;24661;53.566;9.910;2023-07-29T04:41:12;43.87;;;24.10;;
38901;SDS011;24661;53.566;9.910;2023-07-29T04:43:37;41.33;;;23.47;;
38901;SDS011;24661;53.566;9.910;2023-07-29T04:46:05;46.03;;;25.57;;
38901;SDS011;24661;53.566;9.910;2023-07-29T04:48:32;42.00;;;25.37;;
38901;SDS011;24661;53.566;9.910;2023-07-29T04:50:58;47.50;;;26.00;;
38901;SDS011;24661;53.566;9.910;2023-07-29T04:53:23;52.10;;;27.50;;
38901;SDS011;24661;53.566;9.910;2023-07-29T04:55:49;43.40;;;26.13;;
38901;SDS011;24661;53.566;9.910;2023-07-29T04:58:14;51.20;;;26.43;;
38901;SDS011;24661;53.566;9.910;2023-07-29T05:00:40;50.60;;;26.70;;
38901;SDS011;24661;53.566;9.910;2023-07-29T05:03:05;42.37;;;26.63;;
38901;SDS011;24661;53.566;9.910;2023-07-29T05:05:31;42.73;;;25.33;;
38901;SDS011;24661;53.566;9.910;2023-07-29T05:07:57;52.23;;;27.97;;
38901;SDS011;24661;53.566;9.910;2023-07-29T05:10:23;51.37;;;27.03;;
38901;SDS011;24661;53.566;9.910;2023-07-29T05:12:48;40.20;;;23.73;;
38901;SDS011;24661;53.566;9.910;2023-07-29T05:15:14;37.40;;;22.97;;
38901;SDS011;24661;53.566;9.910;2023-07-29T05:17:39;36.30;;;23.90;;
38901;SDS011;24661;53.566;9.910;2023-07-29T05:20:05;38.17;;;24.63;;
38901;SDS011;24661;53.566;9.910;2023-07-29T05:22:31;38.27;;;25.00;;
38901;SDS011;24661;53.566;9.910;2023-07-29T05:24:57;40.47;;;24.80;;
38901;SDS011;24661;53.566;9.910;2023-07-29T05:27:22;38.63;;;23.90;;
38901;SDS011;24661;53.566;9.910;2023-07-29T05:29:48;42.40;;;26.13;;
38901;SDS011;24661;53.566;9.910;2023-07-29T05:32:14;40.27;;;24.43;;
38901;SDS011;24661;53.566;9.910;2023-07-29T05:34:39;38.07;;;24.23;;
38901;SDS011;24661;53.566;9.910;2023-07-29T05:37:05;39.13;;;23.90;;
38901;SDS011;24661;53.566;9.910;2023-07-29T05:39:31;29.67;;;20.83;;
38901;SDS011;24661;53.566;9.910;2023-07-29T05:41:57;40.03;;;23.00;;
38901;SDS011;24661;53.566;9.910;2023-07-29T05:44:22;31.90;;;23.57;;
38901;SDS011;24661;53.566;9.910;2023-07-29T05:46:48;35.77;;;24.17;;
38901;SDS011;24661;53.566;9.910;2023-07-29T05:49:14;48.67;;;27.93;;
38901;SDS011;24661;53.566;9.910;2023-07-29T05:51:39;31.50;;;22.00;;
38901;SDS011;24661;53.566;9.910;2023-07-29T05:54:05;32.93;;;22.90;;
38901;SDS011;24661;53.566;9.910;2023-07-29T05:56:30;34.23;;;22.17;;
38901;SDS011;24661;53.566;9.910;2023-07-29T05:58:56;25.07;;;19.77;;
38901;SDS011;24661;53.566;9.910;2023-07-29T06:01:22;30.97;;;22.00;;
38901;SDS011;24661;53.566;9.910;2023-07-29T06:03:47;36.20;;;24.67;;
38901;SDS011;24661;53.566;9.910;2023-07-29T06:06:13;39.80;;;24.33;;
38901;SDS011;24661;53.566;9.910;2023-07-29T06:08:39;30.93;;;22.63;;
38901;SDS011;24661;53.566;9.910;2023-07-29T06:11:04;28.77;;;21.43;;
38901;SDS011;24661;53.566;9.910;2023-07-29T06:13:31;31.73;;;21.57;;
38901;SDS011;24661;53.566;9.910;2023-07-29T06:15:57;30.50;;;21.20;;
38901;SDS011;24661;53.566;9.910;2023-07-29T06:18:23;33.07;;;22.73;;
38901;SDS011;24661;53.566;9.910;2023-07-29T06:20:49;34.43;;;23.27;;
38901;SDS011;24661;53.566;9.910;2023-07-29T06:23:15;29.23;;;21.80;;
38901;SDS011;24661;53.566;9.910;2023-07-29T06:25:40;30.83;;;21.20;;
38901;SDS011;24661;53.566;9.910;2023-07-29T06:28:06;28.87;;;21.50;;
38901;SDS011;24661;53.566;9.910;2023-07-29T06:30:31;35.60;;;24.40;;
38901;SDS011;24661;53.566;9.910;2023-07-29T06:32:57;30.47;;;22.00;;
38901;SDS011;24661;53.566;9.910;2023-07-29T06:35:23;28.07;;;21.00;;
38901;SDS011;24661;53.566;9.910;2023-07-29T06:37:48;24.57;;;19.03;;
38901;SDS011;24661;53.566;9.910;2023-07-29T06:40:14;31.87;;;22.57;;
38901;SDS011;24661;53.566;9.910;2023-07-29T06:42:40;28.67;;;20.97;;
38901;SDS011;24661;53.566;9.910;2023-07-29T06:45:06;26.40;;;20.33;;
38901;SDS011;24661;53.566;9.910;2023-07-29T06:47:32;30.77;;;22.40;;
38901;SDS011;24661;53.566;9.910;2023-07-29T06:49:57;26.00;;;20.40;;
38901;SDS011;24661;53.566;9.910;2023-07-29T06:52:23;28.50;;;19.10;;
38901;SDS011;24661;53.566;9.910;2023-07-29T06:54:48;25.97;;;20.13;;
38901;SDS011;24661;53.566;9.910;2023-07-29T06:57:14;25.30;;;19.67;;
38901;SDS011;24661;53.566;9.910;2023-07-29T06:59:39;28.37;;;20.37;;
38901;SDS011;24661;53.566;9.910;2023-07-29T07:02:06;34.20;;;25.27;;
38901;SDS011;24661;53.566;9.910;2023-07-29T07:04:32;30.03;;;22.30;;
38901;SDS011;24661;53.566;9.910;2023-07-29T07:06:57;32.67;;;22.37;;
38901;SDS011;24661;53.566;9.910;2023-07-29T07:09:23;27.40;;;21.70;;
38901;SDS011;24661;53.566;9.910;2023-07-29T07:11:48;34.77;;;23.57;;
38901;SDS011;24661;53.566;9.910;2023-07-29T07:14:14;30.07;;;22.03;;
38901;SDS011;24661;53.566;9.910;2023-07-29T07:16:39;28.57;;;21.80;;
38901;SDS011;24661;53.566;9.910;2023-07-29T07:19:05;28.90;;;20.43;;
38901;SDS011;24661;53.566;9.910;2023-07-29T07:21:31;30.50;;;21.83;;
38901;SDS011;24661;53.566;9.910;2023-07-29T07:23:57;28.20;;;21.57;;
38901;SDS011;24661;53.566;9.910;2023-07-29T07:26:23;31.93;;;22.03;;
38901;SDS011;24661;53.566;9.910;2023-07-29T07:28:49;27.07;;;20.70;;
38901;SDS011;24661;53.566;9.910;2023-07-29T07:31:16;27.33;;;20.93;;
38901;SDS011;24661;53.566;9.910;2023-07-29T07:33:42;26.60;;;18.60;;
38901;SDS011;24661;53.566;9.910;2023-07-29T07:36:07;29.33;;;20.93;;
38901;SDS011;24661;53.566;9.910;2023-07-29T07:38:33;26.70;;;20.53;;
38901;SDS011;24661;53.566;9.910;2023-07-29T07:40:58;25.60;;;19.93;;
38901;SDS011;24661;53.566;9.910;2023-07-29T07:43:25;27.80;;;20.50;;
38901;SDS011;24661;53.566;9.910;2023-07-29T07:45:51;25.07;;;19.57;;
38901;SDS011;24661;53.566;9.910;2023-07-29T07:48:22;27.60;;;20.60;;
38901;SDS011;24661;53.566;9.910;2023-07-29T07:50:48;25.53;;;19.10;;
38901;SDS011;24661;53.566;9.910;2023-07-29T07:53:13;25.10;;;20.00;;
38901;SDS011;24661;53.566;9.910;2023-07-29T07:55:41;25.43;;;19.93;;
38901;SDS011;24661;53.566;9.910;2023-07-29T07:58:07;25.80;;;19.40;;
38901;SDS011;24661;53.566;9.910;2023-07-29T08:00:32;23.10;;;18.90;;
38901;SDS011;24661;53.566;9.910;2023-07-29T08:02:58;24.60;;;18.53;;
38901;SDS011;24661;53.566;9.910;2023-07-29T08:05:24;24.73;;;19.80;;
38901;SDS011;24661;53.566;9.910;2023-07-29T08:07:49;23.40;;;18.73;;
38901;SDS011;24661;53.566;9.910;2023-07-29T08:10:15;21.87;;;16.43;;
38901;SDS011;24661;53.566;9.910;2023-07-29T08:12:40;18.63;;;15.50;;
38901;SDS011;24661;53.566;9.910;2023-07-29T08:15:06;21.63;;;15.43;;
38901;SDS011;24661;53.566;9.910;2023-07-29T08:17:32;23.77;;;17.40;;
38901;SDS011;24661;53.566;9.910;2023-07-29T08:19:57;23.23;;;17.30;;
38901;SDS011;24661;53.566;9.910;2023-07-29T08:22:23;22.93;;;18.47;;
38901;SDS011;24661;53.566;9.910;2023-07-29T08:24:48;24.07;;;17.93;;
38901;SDS011;24661;53.566;9.910;2023-07-29T08:27:14;20.00;;;15.13;;
38901;SDS011;24661;53.566;9.910;2023-07-29T08:29:39;20.17;;;15.60;;
38901;SDS011;24661;53.566;9.910;2023-07-29T08:32:05;19.73;;;15.63;;
38901;SDS011;24661;53.566;9.910;2023-07-29T08:34:31;21.47;;;17.00;;
38901;SDS011;24661;53.566;9.910;2023-07-29T08:36:56;21.60;;;15.93;;
38901;SDS011;24661;53.566;9.910;2023-07-29T08:39:22;22.83;;;17.60;;
38901;SDS011;24661;53.566;9.910;2023-07-29T08:41:54;17.47;;;15.27;;
38901;SDS011;24661;53.566;9.910;2023-07-29T08:44:26;25.27;;;18.23;;
38901;SDS011;24661;53.566;9.910;2023-07-29T08:46:55;20.67;;;15.70;;
38901;SDS011;24661;53.566;9.910;2023-07-29T08:49:22;20.97;;;16.50;;
38901;SDS011;24661;53.566;9.910;2023-07-29T08:51:49;23.83;;;17.87;;
38901;SDS011;24661;53.566;9.910;2023-07-29T08:54:18;22.90;;;17.93;;
38901;SDS011;24661;53.566;9.910;2023-07-29T08:56:44;18.63;;;16.63;;
38901;SDS011;24661;53.566;9.910;2023-07-29T08:59:10;21.20;;;15.57;;
38901;SDS011;24661;53.566;9.910;2023-07-29T09:01:40;18.43;;;16.47;;
38901;SDS011;24661;53.566;9.910;2023-07-29T09:04:07;18.43;;;15.63;;
38901;SDS011;24661;53.566;9.910;2023-07-29T09:06:32;18.90;;;15.63;;
38901;SDS011;24661;53.566;9.910;2023-07-29T09:09:00;16.63;;;14.77;;
38901;SDS011;24661;53.566;9.910;2023-07-29T09:11:27;16.57;;;14.87;;
38901;SDS011;24661;53.566;9.910;2023-07-29T09:13:53;15.83;;;14.13;;
38901;SDS011;24661;53.566;9.910;2023-07-29T09:16:22;18.83;;;16.23;;
38901;SDS011;24661;53.566;9.910;2023-07-29T09:18:48;17.37;;;15.43;;
38901;SDS011;24661;53.566;9.910;2023-07-29T09:21:17;17.40;;;14.47;;
38901;SDS011;24661;53.566;9.910;2023-07-29T09:23:49;19.50;;;15.83;;
38901;SDS011;24661;53.566;9.910;2023-07-29T09:26:21;18.87;;;16.00;;
38901;SDS011;24661;53.566;9.910;2023-07-29T09:28:54;21.10;;;17.63;;
38901;SDS011;24661;53.566;9.910;2023-07-29T09:31:21;18.00;;;15.53;;
38901;SDS011;24661;53.566;9.910;2023-07-29T09:33:50;17.43;;;13.93;;
38901;SDS011;24661;53.566;9.910;2023-07-29T09:36:24;17.20;;;14.77;;
38901;SDS011;24661;53.566;9.910;2023-07-29T09:38:54;14.83;;;13.33;;
38901;SDS011;24661;53.566;9.910;2023-07-29T09:41:23;16.57;;;13.87;;
38901;SDS011;24661;53.566;9.910;2023-07-29T09:43:56;16.57;;;12.87;;
38901;SDS011;24661;53.566;9.910;2023-07-29T09:46:24;17.23;;;13.10;;
38901;SDS011;24661;53.566;9.910;2023-07-29T09:48:52;14.93;;;12.33;;
38901;SDS011;24661;53.566;9.910;2023-07-29T09:51:22;13.87;;;11.60;;
38901;SDS011;24661;53.566;9.910;2023-07-29T09:53:49;11.73;;;10.43;;
38901;SDS011;24661;53.566;9.910;2023-07-29T09:56:16;13.03;;;10.40;;
38901;SDS011;24661;53.566;9.910;2023-07-29T09:58:43;12.50;;;11.17;;
38901;SDS011;24661;53.566;9.910;2023-07-29T10:01:10;13.50;;;9.20;;
38901;SDS011;24661;53.566;9.910;2023-07-29T10:03:36;10.93;;;9.83;;
38901;SDS011;24661;53.566;9.910;2023-07-29T10:06:03;9.37;;;7.70;;
38901;SDS011;24661;53.566;9.910;2023-07-29T10:08:30;11.27;;;9.30;;
38901;SDS011;24661;53.566;9.910;2023-07-29T10:11:05;11.13;;;9.80;;
38901;SDS011;24661;53.566;9.910;2023-07-29T10:13:33;8.60;;;7.80;;
38901;SDS011;24661;53.566;9.910;2023-07-29T10:15:59;9.57;;;7.83;;
38901;SDS011;24661;53.566;9.910;2023-07-29T10:18:30;8.57;;;7.40;;
38901;SDS011;24661;53.566;9.910;2023-07-29T10:20:57;10.10;;;7.57;;
38901;SDS011;24661;53.566;9.910;2023-07-29T10:23:24;8.20;;;7.40;;
38901;SDS011;24661;53.566;9.910;2023-07-29T10:25:57;13.03;;;6.60;;
38901;SDS011;24661;53.566;9.910;2023-07-29T10:28:30;7.93;;;6.40;;
38901;SDS011;24661;53.566;9.910;2023-07-29T10:30:57;8.73;;;7.30;;
38901;SDS011;24661;53.566;9.910;2023-07-29T10:33:25;10.10;;;6.47;;
38901;SDS011;24661;53.566;9.910;2023-07-29T10:35:51;6.80;;;5.67;;
38901;SDS011;24661;53.566;9.910;2023-07-29T10:38:18;8.33;;;5.53;;
38901;SDS011;24661;53.566;9.910;2023-07-29T10:40:56;7.10;;;6.40;;
38901;SDS011;24661;53.566;9.910;2023-07-29T10:43:25;5.53;;;4.90;;
38901;SDS011;24661;53.566;9.910;2023-07-29T10:45:52;8.43;;;5.33;;
38901;SDS011;24661;53.566;9.910;2023-07-29T10:53:55;5.10;;;4.60;;
38901;SDS011;24661;53.566;9.910;2023-07-29T10:56:32;5.63;;;4.27;;
38901;SDS011;24661;53.566;9.910;2023-07-29T11:01:40;5.63;;;3.80;;
38901;SDS011;24661;53.566;9.910;2023-07-29T11:10:02;4.07;;;3.77;;
38901;SDS011;24661;53.566;9.910;2023-07-29T11:12:41;5.73;;;3.53;;
38901;SDS011;24661;53.566;9.910;2023-07-29T11:15:23;4.50;;;2.67;;
38901;SDS011;24661;53.566;9.910;2023-07-29T11:17:51;4.57;;;2.60;;
38901;SDS011;24661;53.566;9.910;2023-07-29T11:20:25;3.20;;;2.43;;
38901;SDS011;24661;53.566;9.910;2023-07-29T11:22:58;3.27;;;2.53;;
38901;SDS011;24661;53.566;9.910;2023-07-29T11:25:26;3.60;;;1.87;;
38901;SDS011;24661;53.566;9.910;2023-07-29T11:27:54;2.70;;;2.13;;
38901;SDS011;24661;53.566;9.910;2023-07-29T11:30:21;2.53;;;2.33;;
38901;SDS011;24661;53.566;9.910;2023-07-29T11:32:48;3.47;;;2.00;;
38901;SDS011;24661;53.566;9.910;2023-07-29T11:35:15;3.90;;;2.33;;
38901;SDS011;24661;53.566;9.910;2023-07-29T11:37:43;3.77;;;2.80;;
38901;SDS011;24661;53.566;9.910;2023-07-29T11:40:13;4.50;;;2.83;;
38901;SDS011;24661;53.566;9.910;2023-07-29T11:42:48;5.73;;;2.77;;
38901;SDS011;24661;53.566;9.910;2023-07-29T11:45:15;3.00;;;2.77;;
38901;SDS011;24661;53.566;9.910;2023-07-29T11:47:41;3.60;;;3.30;;
38901;SDS011;24661;53.566;9.910;2023-07-29T11:50:07;4.10;;;3.07;;
38901;SDS011;24661;53.566;9.910;2023-07-29T11:52:34;2.50;;;2.30;;
38901;SDS011;24661;53.566;9.910;2023-07-29T11:55:01;4.90;;;2.90;;
38901;SDS011;24661;53.566;9.910;2023-07-29T11:57:32;3.50;;;2.80;;
38901;SDS011;24661;53.566;9.910;2023-07-29T12:00:01;3.47;;;2.90;;
38901;SDS011;24661;53.566;9.910;2023-07-29T12:02:39;2.70;;;2.50;;
38901;SDS011;24661;53.566;9.910;2023-07-29T12:05:06;4.40;;;2.90;;
38901;SDS011;24661;53.566;9.910;2023-07-29T12:07:33;2.60;;;2.23;;
38901;SDS011;24661;53.566;9.910;2023-07-29T12:09:59;3.27;;;2.50;;
38901;SDS011;24661;53.566;9.910;2023-07-29T12:12:25;4.33;;;3.10;;
38901;SDS011;24661;53.566;9.910;2023-07-29T12:14:51;2.30;;;2.10;;
38901;SDS011;24661;53.566;9.910;2023-07-29T12:17:19;2.17;;;1.97;;
38901;SDS011;24661;53.566;9.910;2023-07-29T12:19:44;3.90;;;2.67;;
38901;SDS011;24661;53.566;9.910;2023-07-29T12:22:10;3.40;;;2.60;;
38901;SDS011;24661;53.566;9.910;2023-07-29T12:24:40;2.20;;;2.00;;
38901;SDS011;24661;53.566;9.910;2023-07-29T12:27:09;2.57;;;2.30;;
38901;SDS011;24661;53.566;9.910;2023-07-29T12:29:39;2.20;;;2.00;;
38901;SDS011;24661;53.566;9.910;2023-07-29T12:32:06;2.50;;;2.30;;
38901;SDS011;24661;53.566;9.910;2023-07-29T12:34:32;3.00;;;2.13;;
38901;SDS011;24661;53.566;9.910;2023-07-29T12:36:58;4.60;;;3.93;;
38901;SDS011;24661;53.566;9.910;2023-07-29T12:39:27;2.70;;;2.50;;
38901;SDS011;24661;53.566;9.910;2023-07-29T12:41:55;2.10;;;1.70;;
38901;SDS011;24661;53.566;9.910;2023-07-29T12:44:23;4.50;;;1.80;;
38901;SDS011;24661;53.566;9.910;2023-07-29T12:46:50;3.10;;;1.53;;
38901;SDS011;24661;53.566;9.910;2023-07-29T12:49:16;1.57;;;1.47;;
38901;SDS011;24661;53.566;9.910;2023-07-29T12:51:42;2.27;;;1.90;;
38901;SDS011;24661;53.566;9.910;2023-07-29T12:54:08;1.90;;;1.67;;
38901;SDS011;24661;53.566;9.910;2023-07-29T12:56:33;5.47;;;1.60;;
38901;SDS011;24661;53.566;9.910;2023-07-29T12:59:00;4.10;;;1.83;;
38901;SDS011;24661;53.566;9.910;2023-07-29T13:01:26;1.90;;;1.70;;
38901;SDS011;24661;53.566;9.910;2023-07-29T13:03:53;1.50;;;1.23;;
38901;SDS011;24661;53.566;9.910;2023-07-29T13:06:19;1.63;;;1.53;;
38901;SDS011;24661;53.566;9.910;2023-07-29T13:08:45;2.87;;;1.77;;
38901;SDS011;24661;53.566;9.910;2023-07-29T13:11:12;2.03;;;1.87;;
38901;SDS011;24661;53.566;9.910;2023-07-29T13:13:37;2.10;;;1.90;;
38901;SDS011;24661;53.566;9.910;2023-07-29T13:16:03;2.93;;;1.63;;
38901;SDS011;24661;53.566;9.910;2023-07-29T13:18:29;4.77;;;1.93;;
38901;SDS011;24661;53.566;9.910;2023-07-29T13:20:54;1.80;;;1.70;;
38901;SDS011;24661;53.566;9.910;2023-07-29T13:23:20;2.10;;;1.43;;
38901;SDS011;24661;53.566;9.910;2023-07-29T13:25:46;4.63;;;1.73;;
38901;SDS011;24661;53.566;9.910;2023-07-29T13:28:11;3.50;;;1.60;;
38901;SDS011;24661;53.566;9.910;2023-07-29T13:30:38;2.13;;;1.63;;
38901;SDS011;24661;53.566;9.910;2023-07-29T13:33:04;2.60;;;1.87;;
38901;SDS011;24661;53.566;9.910;2023-07-29T13:35:31;2.37;;;2.13;;
38901;SDS011;24661;53.566;9.910;2023-07-29T13:37:57;1.97;;;1.70;;
38901;SDS011;24661;53.566;9.910;2023-07-29T13:40:22;4.97;;;1.60;;
38901;SDS011;24661;53.566;9.910;2023-07-29T13:42:48;2.00;;;1.80;;
38901;SDS011;24661;53.566;9.910;2023-07-29T13:45:13;5.70;;;1.60;;
38901;SDS011;24661;53.566;9.910;2023-07-29T13:47:39;2.47;;;1.60;;
38901;SDS011;24661;53.566;9.910;2023-07-29T13:50:05;2.87;;;1.67;;
38901;SDS011;24661;53.566;9.910;2023-07-29T13:52:33;1.87;;;1.73;;
38901;SDS011;24661;53.566;9.910;2023-07-29T13:54:58;2.10;;;1.87;;
38901;SDS011;24661;53.566;9.910;2023-07-29T13:57:24;4.90;;;1.70;;
38901;SDS011;24661;53.566;9.910;2023-07-29T13:59:49;1.70;;;1.60;;
38901;SDS011;24661;53.566;9.910;2023-07-29T14:02:15;3.03;;;2.03;;
38901;SDS011;24661;53.566;9.910;2023-07-29T14:04:40;4.77;;;2.00;;
38901;SDS011;24661;53.566;9.910;2023-07-29T14:07:06;4.03;;;2.10;;
38901;SDS011;24661;53.566;9.910;2023-07-29T14:09:31;2.33;;;1.73;;
38901;SDS011;24661;53.566;9.910;2023-07-29T14:11:57;4.73;;;2.67;;
38901;SDS011;24661;53.566;9.910;2023-07-29T14:14:23;2.43;;;2.10;;
38901;SDS011;24661;53.566;9.910;2023-07-29T14:16:48;2.43;;;1.87;;
38901;SDS011;24661;53.566;9.910;2023-07-29T14:19:14;2.87;;;1.70;;
38901;SDS011;24661;53.566;9.910;2023-07-29T14:21:40;2.13;;;1.80;;
38901;SDS011;24661;53.566;9.910;2023-07-29T14:24:05;2.00;;;1.67;;
38901;SDS011;24661;53.566;9.910;2023-07-29T14:26:32;5.23;;;1.87;;
38901;SDS011;24661;53.566;9.910;2023-07-29T14:28:58;1.60;;;1.50;;
38901;SDS011;24661;53.566;9.910;2023-07-29T14:31:23;2.90;;;1.80;;
38901;SDS011;24661;53.566;9.910;2023-07-29T14:33:49;2.73;;;1.73;;
38901;SDS011;24661;53.566;9.910;2023-07-29T14:36:15;2.33;;;1.80;;
38901;SDS011;24661;53.566;9.910;2023-07-29T14:38:41;2.43;;;1.47;;
38901;SDS011;24661;53.566;9.910;2023-07-29T14:41:07;2.93;;;1.77;;
38901;SDS011;24661;53.566;9.910;2023-07-29T14:43:33;1.70;;;1.60;;
38901;SDS011;24661;53.566;9.910;2023-07-29T14:45:59;2.63;;;2.13;;
38901;SDS011;24661;53.566;9.910;2023-07-29T14:48:25;2.20;;;1.33;;
38901;SDS011;24661;53.566;9.910;2023-07-29T14:50:51;2.77;;;1.73;;